sensor_id;sensor_type;location;lat;lon;timestamp;P1;durP1;ratioP1;P2;durP2;ratioP2
12812;SDS011;6471;50.932;6.934;2023-08-08T00:01:35;1.60;;;1.20;;
12812;SDS011;6471;50.932;6.934;2023-08-08T00:04:01;1.67;;;1.37;;
12812;SDS011;6471;50.932;6.934;2023-08-08T00:06:27;1.17;;;1.07;;
12812;SDS011;6471;50.932;6.934;2023-08-08T00:08:53;1.20;;;1.10;;
12812;SDS011;6471;50.932;6.934;2023-08-08T00:11:19;1.73;;;1.20;;
12812;SDS011;6471;50.932;6.934;2023-08-08T00:13:45;2.23;;;1.23;;
12812;SDS011;6471;50.932;6.934;2023-08-08T00:16:11;1.30;;;1.20;;
12812;SDS011;6471;50.932;6.934;2023-08-08T00:18:37;1.53;;;1.20;;
12812;SDS011;6471;50.932;6.934;2023-08-08T00:21:03;1.20;;;1.10;;
12812;SDS011;6471;50.932;6.934;2023-08-08T00:23:29;1.50;;;1.20;;
12812;SDS011;6471;50.932;6.934;2023-08-08T00:25:55;2.20;;;1.20;;
12812;SDS011;6471;50.932;6.934;2023-08-08T00:28:21;1.40;;;1.30;;
12812;SDS011;6471;50.932;6.934;2023-08-08T00:30:47;1.50;;;1.30;;
12812;SDS011;6471;50.932;6.934;2023-08-08T00:33:13;1.30;;;1.20;;
12812;SDS011;6471;50.932;6.934;2023-08-08T00:35:39;1.40;;;1.20;;
12812;SDS011;6471;50.932;6.934;2023-08-08T00:38:06;1.30;;;1.20;;
12812;SDS011;6471;50.932;6.934;2023-08-08T00:40:32;1.20;;;1.10;;
12812;SDS011;6471;50.932;6.934;2023-08-08T00:42:58;1.60;;;1.20;;
12812;SDS011;6471;50.932;6.934;2023-08-08T00:45:24;1.87;;;1.40;;
12812;SDS011;6471;50.932;6.934;2023-08-08T00:47:50;1.93;;;1.50;;
12812;SDS011;6471;50.932;6.934;2023-08-08T00:50:16;1.40;;;1.30;;
12812;SDS011;6471;50.932;6.934;2023-08-08T00:52:43;1.40;;;1.30;;
12812;SDS011;6471;50.932;6.934;2023-08-08T00:55:09;1.53;;;1.30;;
12812;SDS011;6471;50.932;6.934;2023-08-08T00:57:35;1.87;;;1.30;;
12812;SDS011;6471;50.932;6.934;2023-08-08T01:00:04;1.40;;;1.30;;
12812;SDS011;6471;50.932;6.934;2023-08-08T01:02:30;1.60;;;1.23;;
12812;SDS011;6471;50.932;6.934;2023-08-08T01:04:56;1.77;;;1.40;;
12812;SDS011;6471;50.932;6.934;2023-08-08T01:09:52;1.40;;;1.30;;
12812;SDS011;6471;50.932;6.934;2023-08-08T01:12:18;2.67;;;1.30;;
12812;SDS011;6471;50.932;6.934;2023-08-08T01:14:45;1.30;;;1.20;;
12812;SDS011;6471;50.932;6.934;2023-08-08T01:17:11;1.20;;;1.10;;
12812;SDS011;6471;50.932;6.934;2023-08-08T01:19:38;1.60;;;1.10;;
12812;SDS011;6471;50.932;6.934;2023-08-08T01:22:05;1.20;;;1.00;;
12812;SDS011;6471;50.932;6.934;2023-08-08T01:24:32;1.37;;;1.27;;
12812;SDS011;6471;50.932;6.934;2023-08-08T01:27:02;1.20;;;1.10;;
12812;SDS011;6471;50.932;6.934;2023-08-08T01:29:28;1.80;;;1.27;;
12812;SDS011;6471;50.932;6.934;2023-08-08T01:31:54;2.10;;;1.40;;
12812;SDS011;6471;50.932;6.934;2023-08-08T01:34:20;1.47;;;1.30;;
12812;SDS011;6471;50.932;6.934;2023-08-08T01:39:13;1.50;;;1.40;;
12812;SDS011;6471;50.932;6.934;2023-08-08T01:41:40;1.50;;;1.30;;
12812;SDS011;6471;50.932;6.934;2023-08-08T01:44:07;1.50;;;1.20;;
12812;SDS011;6471;50.932;6.934;2023-08-08T01:46:33;1.23;;;1.13;;
12812;SDS011;6471;50.932;6.934;2023-08-08T01:48:59;1.23;;;1.13;;
12812;SDS011;6471;50.932;6.934;2023-08-08T01:51:25;1.70;;;1.20;;
12812;SDS011;6471;50.932;6.934;2023-08-08T01:53:52;1.30;;;1.20;;
12812;SDS011;6471;50.932;6.934;2023-08-08T01:56:18;1.47;;;1.30;;
12812;SDS011;6471;50.932;6.934;2023-08-08T01:58:44;1.60;;;1.30;;
12812;SDS011;6471;50.932;6.934;2023-08-08T02:01:10;1.50;;;1.30;;
12812;SDS011;6471;50.932;6.934;2023-08-08T02:03:36;2.27;;;1.50;;
12812;SDS011;6471;50.932;6.934;2023-08-08T02:06:02;1.80;;;1.30;;
12812;SDS011;6471;50.932;6.934;2023-08-08T02:08:28;1.97;;;1.40;;
12812;SDS011;6471;50.932;6.934;2023-08-08T02:10:54;2.37;;;1.50;;
12812;SDS011;6471;50.932;6.934;2023-08-08T02:13:20;1.60;;;1.17;;
12812;SDS011;6471;50.932;6.934;2023-08-08T02:15:46;1.70;;;1.40;;
12812;SDS011;6471;50.932;6.934;2023-08-08T02:18:12;1.63;;;1.30;;
12812;SDS011;6471;50.932;6.934;2023-08-08T02:20:39;1.50;;;1.30;;
12812;SDS011;6471;50.932;6.934;2023-08-08T02:23:05;2.00;;;1.70;;
12812;SDS011;6471;50.932;6.934;2023-08-08T02:25:31;1.80;;;1.60;;
12812;SDS011;6471;50.932;6.934;2023-08-08T02:27:57;2.07;;;1.50;;
12812;SDS011;6471;50.932;6.934;2023-08-08T02:30:23;1.40;;;1.30;;
12812;SDS011;6471;50.932;6.934;2023-08-08T02:32:49;1.70;;;1.40;;
12812;SDS011;6471;50.932;6.934;2023-08-08T02:35:15;1.30;;;1.20;;
12812;SDS011;6471;50.932;6.934;2023-08-08T02:37:41;1.57;;;1.37;;
12812;SDS011;6471;50.932;6.934;2023-08-08T02:40:07;1.47;;;1.33;;
12812;SDS011;6471;50.932;6.934;2023-08-08T02:42:34;1.67;;;1.37;;
12812;SDS011;6471;50.932;6.934;2023-08-08T02:45:00;1.90;;;1.40;;
12812;SDS011;6471;50.932;6.934;2023-08-08T02:47:27;2.40;;;1.40;;
12812;SDS011;6471;50.932;6.934;2023-08-08T02:49:53;1.73;;;1.40;;
12812;SDS011;6471;50.932;6.934;2023-08-08T02:52:19;2.10;;;1.23;;
12812;SDS011;6471;50.932;6.934;2023-08-08T02:54:45;1.83;;;1.30;;
12812;SDS011;6471;50.932;6.934;2023-08-08T02:57:11;2.00;;;1.17;;
12812;SDS011;6471;50.932;6.934;2023-08-08T02:59:37;2.13;;;1.40;;
12812;SDS011;6471;50.932;6.934;2023-08-08T03:02:03;1.87;;;1.40;;
12812;SDS011;6471;50.932;6.934;2023-08-08T03:04:30;2.20;;;1.30;;
12812;SDS011;6471;50.932;6.934;2023-08-08T03:06:56;1.70;;;1.40;;
12812;SDS011;6471;50.932;6.934;2023-08-08T03:09:22;1.63;;;1.40;;
12812;SDS011;6471;50.932;6.934;2023-08-08T03:11:48;1.40;;;1.30;;
12812;SDS011;6471;50.932;6.934;2023-08-08T03:14:14;1.73;;;1.33;;
12812;SDS011;6471;50.932;6.934;2023-08-08T03:16:40;1.90;;;1.50;;
12812;SDS011;6471;50.932;6.934;2023-08-08T03:19:06;1.30;;;1.20;;
12812;SDS011;6471;50.932;6.934;2023-08-08T03:21:32;1.30;;;1.20;;
12812;SDS011;6471;50.932;6.934;2023-08-08T03:23:58;2.67;;;1.30;;
12812;SDS011;6471;50.932;6.934;2023-08-08T03:26:24;1.40;;;1.30;;
12812;SDS011;6471;50.932;6.934;2023-08-08T03:28:50;2.07;;;1.40;;
12812;SDS011;6471;50.932;6.934;2023-08-08T03:31:18;1.60;;;1.37;;
12812;SDS011;6471;50.932;6.934;2023-08-08T03:33:44;1.40;;;1.30;;
12812;SDS011;6471;50.932;6.934;2023-08-08T03:36:10;1.53;;;1.30;;
12812;SDS011;6471;50.932;6.934;2023-08-08T03:38:36;1.93;;;1.40;;
12812;SDS011;6471;50.932;6.934;2023-08-08T03:41:03;2.13;;;1.40;;
12812;SDS011;6471;50.932;6.934;2023-08-08T03:43:29;1.73;;;1.40;;
12812;SDS011;6471;50.932;6.934;2023-08-08T03:45:55;1.80;;;1.40;;
12812;SDS011;6471;50.932;6.934;2023-08-08T03:48:21;1.57;;;1.47;;
12812;SDS011;6471;50.932;6.934;2023-08-08T03:50:47;2.33;;;1.63;;
12812;SDS011;6471;50.932;6.934;2023-08-08T03:53:14;1.70;;;1.30;;
12812;SDS011;6471;50.932;6.934;2023-08-08T03:55:40;2.03;;;1.60;;
12812;SDS011;6471;50.932;6.934;2023-08-08T03:58:06;2.60;;;1.50;;
12812;SDS011;6471;50.932;6.934;2023-08-08T04:00:32;1.90;;;1.50;;
12812;SDS011;6471;50.932;6.934;2023-08-08T04:02:58;2.47;;;1.57;;
12812;SDS011;6471;50.932;6.934;2023-08-08T04:05:24;2.57;;;1.60;;
12812;SDS011;6471;50.932;6.934;2023-08-08T04:07:50;2.00;;;1.40;;
12812;SDS011;6471;50.932;6.934;2023-08-08T04:10:16;1.90;;;1.57;;
12812;SDS011;6471;50.932;6.934;2023-08-08T04:12:42;1.63;;;1.40;;
12812;SDS011;6471;50.932;6.934;2023-08-08T04:15:08;3.30;;;1.50;;
12812;SDS011;6471;50.932;6.934;2023-08-08T04:17:34;1.50;;;1.40;;
12812;SDS011;6471;50.932;6.934;2023-08-08T04:20:01;2.43;;;1.60;;
12812;SDS011;6471;50.932;6.934;2023-08-08T04:22:27;2.00;;;1.53;;
12812;SDS011;6471;50.932;6.934;2023-08-08T04:24:53;3.37;;;1.70;;
12812;SDS011;6471;50.932;6.934;2023-08-08T04:27:19;2.53;;;1.50;;
12812;SDS011;6471;50.932;6.934;2023-08-08T04:29:45;3.03;;;1.63;;
12812;SDS011;6471;50.932;6.934;2023-08-08T04:32:11;3.77;;;1.60;;
12812;SDS011;6471;50.932;6.934;2023-08-08T04:34:37;2.77;;;1.60;;
12812;SDS011;6471;50.932;6.934;2023-08-08T04:37:03;1.93;;;1.57;;
12812;SDS011;6471;50.932;6.934;2023-08-08T04:39:30;3.07;;;1.70;;
12812;SDS011;6471;50.932;6.934;2023-08-08T04:41:56;2.70;;;1.50;;
12812;SDS011;6471;50.932;6.934;2023-08-08T04:44:22;5.73;;;1.97;;
12812;SDS011;6471;50.932;6.934;2023-08-08T04:46:48;4.70;;;1.80;;
12812;SDS011;6471;50.932;6.934;2023-08-08T04:49:14;3.43;;;1.67;;
12812;SDS011;6471;50.932;6.934;2023-08-08T04:51:40;1.90;;;1.70;;
12812;SDS011;6471;50.932;6.934;2023-08-08T04:54:06;3.00;;;1.63;;
12812;SDS011;6471;50.932;6.934;2023-08-08T04:56:32;2.80;;;1.80;;
12812;SDS011;6471;50.932;6.934;2023-08-08T04:58:58;3.70;;;1.50;;
12812;SDS011;6471;50.932;6.934;2023-08-08T05:01:24;2.17;;;1.73;;
12812;SDS011;6471;50.932;6.934;2023-08-08T05:03:50;2.33;;;1.70;;
12812;SDS011;6471;50.932;6.934;2023-08-08T05:06:16;1.67;;;1.57;;
12812;SDS011;6471;50.932;6.934;2023-08-08T05:08:42;2.63;;;1.90;;
12812;SDS011;6471;50.932;6.934;2023-08-08T05:11:08;2.93;;;1.90;;
12812;SDS011;6471;50.932;6.934;2023-08-08T05:13:34;2.37;;;1.83;;
12812;SDS011;6471;50.932;6.934;2023-08-08T05:16:00;3.37;;;1.70;;
12812;SDS011;6471;50.932;6.934;2023-08-08T05:18:26;3.70;;;2.00;;
12812;SDS011;6471;50.932;6.934;2023-08-08T05:20:52;4.77;;;2.10;;
12812;SDS011;6471;50.932;6.934;2023-08-08T05:23:18;2.80;;;2.10;;
12812;SDS011;6471;50.932;6.934;2023-08-08T05:25:45;3.10;;;1.90;;
12812;SDS011;6471;50.932;6.934;2023-08-08T05:28:11;2.83;;;2.00;;
12812;SDS011;6471;50.932;6.934;2023-08-08T05:30:37;3.27;;;1.93;;
12812;SDS011;6471;50.932;6.934;2023-08-08T05:33:03;3.00;;;2.17;;
12812;SDS011;6471;50.932;6.934;2023-08-08T05:35:30;4.90;;;2.17;;
12812;SDS011;6471;50.932;6.934;2023-08-08T05:37:56;2.93;;;2.10;;
12812;SDS011;6471;50.932;6.934;2023-08-08T05:40:22;3.33;;;2.27;;
12812;SDS011;6471;50.932;6.934;2023-08-08T05:42:48;3.10;;;2.30;;
12812;SDS011;6471;50.932;6.934;2023-08-08T05:45:14;2.90;;;2.00;;
12812;SDS011;6471;50.932;6.934;2023-08-08T05:47:40;5.90;;;2.80;;
12812;SDS011;6471;50.932;6.934;2023-08-08T05:50:06;4.83;;;2.30;;
12812;SDS011;6471;50.932;6.934;2023-08-08T05:52:32;3.47;;;2.10;;
12812;SDS011;6471;50.932;6.934;2023-08-08T05:54:58;2.20;;;2.00;;
12812;SDS011;6471;50.932;6.934;2023-08-08T05:57:25;2.83;;;2.37;;
12812;SDS011;6471;50.932;6.934;2023-08-08T05:59:51;4.60;;;2.30;;
12812;SDS011;6471;50.932;6.934;2023-08-08T06:02:17;4.07;;;2.27;;
12812;SDS011;6471;50.932;6.934;2023-08-08T06:04:43;3.80;;;2.30;;
12812;SDS011;6471;50.932;6.934;2023-08-08T06:07:10;3.87;;;2.30;;
12812;SDS011;6471;50.932;6.934;2023-08-08T06:09:36;4.50;;;2.70;;
12812;SDS011;6471;50.932;6.934;2023-08-08T06:12:03;4.03;;;2.40;;
12812;SDS011;6471;50.932;6.934;2023-08-08T06:14:30;2.90;;;2.50;;
12812;SDS011;6471;50.932;6.934;2023-08-08T06:16:56;3.97;;;2.20;;
12812;SDS011;6471;50.932;6.934;2023-08-08T06:19:22;3.63;;;2.10;;
12812;SDS011;6471;50.932;6.934;2023-08-08T06:21:48;3.60;;;2.30;;
12812;SDS011;6471;50.932;6.934;2023-08-08T06:24:15;4.43;;;2.27;;
12812;SDS011;6471;50.932;6.934;2023-08-08T06:26:41;5.07;;;2.70;;
12812;SDS011;6471;50.932;6.934;2023-08-08T06:29:07;4.97;;;2.70;;
12812;SDS011;6471;50.932;6.934;2023-08-08T06:31:33;5.90;;;2.63;;
12812;SDS011;6471;50.932;6.934;2023-08-08T06:33:59;6.70;;;2.97;;
12812;SDS011;6471;50.932;6.934;2023-08-08T06:36:26;5.00;;;2.37;;
12812;SDS011;6471;50.932;6.934;2023-08-08T06:38:52;4.90;;;2.87;;
12812;SDS011;6471;50.932;6.934;2023-08-08T06:41:18;3.23;;;2.13;;
12812;SDS011;6471;50.932;6.934;2023-08-08T06:43:44;4.73;;;2.03;;
12812;SDS011;6471;50.932;6.934;2023-08-08T06:46:10;4.03;;;2.07;;
12812;SDS011;6471;50.932;6.934;2023-08-08T06:48:36;4.13;;;2.13;;
12812;SDS011;6471;50.932;6.934;2023-08-08T06:51:02;4.47;;;2.30;;
12812;SDS011;6471;50.932;6.934;2023-08-08T06:53:28;3.93;;;2.07;;
12812;SDS011;6471;50.932;6.934;2023-08-08T06:55:54;3.43;;;2.27;;
12812;SDS011;6471;50.932;6.934;2023-08-08T06:58:20;4.70;;;2.17;;
12812;SDS011;6471;50.932;6.934;2023-08-08T07:00:46;3.27;;;2.10;;
12812;SDS011;6471;50.932;6.934;2023-08-08T07:03:12;4.53;;;2.50;;
12812;SDS011;6471;50.932;6.934;2023-08-08T07:05:38;5.77;;;2.40;;
12812;SDS011;6471;50.932;6.934;2023-08-08T07:08:05;5.40;;;2.70;;
12812;SDS011;6471;50.932;6.934;2023-08-08T07:10:31;4.83;;;2.17;;
12812;SDS011;6471;50.932;6.934;2023-08-08T07:12:57;6.20;;;2.30;;
12812;SDS011;6471;50.932;6.934;2023-08-08T07:15:23;3.93;;;2.23;;
12812;SDS011;6471;50.932;6.934;2023-08-08T07:17:49;7.57;;;2.50;;
12812;SDS011;6471;50.932;6.934;2023-08-08T07:20:15;4.40;;;2.13;;
12812;SDS011;6471;50.932;6.934;2023-08-08T07:22:42;3.20;;;1.97;;
12812;SDS011;6471;50.932;6.934;2023-08-08T07:25:08;4.80;;;2.27;;
12812;SDS011;6471;50.932;6.934;2023-08-08T07:27:36;4.43;;;2.23;;
12812;SDS011;6471;50.932;6.934;2023-08-08T07:30:03;3.77;;;2.10;;
12812;SDS011;6471;50.932;6.934;2023-08-08T07:32:29;4.70;;;2.37;;
12812;SDS011;6471;50.932;6.934;2023-08-08T07:34:55;4.00;;;2.33;;
12812;SDS011;6471;50.932;6.934;2023-08-08T07:37:21;5.20;;;2.70;;
12812;SDS011;6471;50.932;6.934;2023-08-08T07:39:50;4.97;;;2.10;;
12812;SDS011;6471;50.932;6.934;2023-08-08T07:42:19;4.30;;;2.10;;
12812;SDS011;6471;50.932;6.934;2023-08-08T07:44:45;4.53;;;2.37;;
12812;SDS011;6471;50.932;6.934;2023-08-08T07:47:11;5.13;;;2.60;;
12812;SDS011;6471;50.932;6.934;2023-08-08T07:49:37;6.80;;;2.60;;
12812;SDS011;6471;50.932;6.934;2023-08-08T07:52:03;7.07;;;2.77;;
12812;SDS011;6471;50.932;6.934;2023-08-08T07:54:29;7.13;;;3.07;;
12812;SDS011;6471;50.932;6.934;2023-08-08T07:56:55;6.10;;;3.00;;
12812;SDS011;6471;50.932;6.934;2023-08-08T07:59:21;5.50;;;2.73;;
12812;SDS011;6471;50.932;6.934;2023-08-08T08:01:47;3.27;;;2.47;;
12812;SDS011;6471;50.932;6.934;2023-08-08T08:04:13;6.77;;;2.73;;
12812;SDS011;6471;50.932;6.934;2023-08-08T08:06:39;7.43;;;2.63;;
12812;SDS011;6471;50.932;6.934;2023-08-08T08:09:05;4.83;;;2.67;;
12812;SDS011;6471;50.932;6.934;2023-08-08T08:11:31;7.07;;;3.07;;
12812;SDS011;6471;50.932;6.934;2023-08-08T08:13:57;6.43;;;2.67;;
12812;SDS011;6471;50.932;6.934;2023-08-08T08:16:23;4.57;;;2.50;;
12812;SDS011;6471;50.932;6.934;2023-08-08T08:18:49;3.47;;;2.43;;
12812;SDS011;6471;50.932;6.934;2023-08-08T08:21:15;6.83;;;2.67;;
12812;SDS011;6471;50.932;6.934;2023-08-08T08:23:42;3.13;;;2.40;;
12812;SDS011;6471;50.932;6.934;2023-08-08T08:26:09;6.03;;;2.53;;
12812;SDS011;6471;50.932;6.934;2023-08-08T08:28:35;5.90;;;3.07;;
12812;SDS011;6471;50.932;6.934;2023-08-08T08:31:05;4.90;;;3.03;;
12812;SDS011;6471;50.932;6.934;2023-08-08T08:33:32;8.03;;;3.30;;
12812;SDS011;6471;50.932;6.934;2023-08-08T08:35:58;4.97;;;2.77;;
12812;SDS011;6471;50.932;6.934;2023-08-08T08:38:24;7.27;;;3.10;;
12812;SDS011;6471;50.932;6.934;2023-08-08T08:40:50;3.83;;;2.90;;
12812;SDS011;6471;50.932;6.934;2023-08-08T08:43:17;8.83;;;3.27;;
12812;SDS011;6471;50.932;6.934;2023-08-08T08:45:43;8.27;;;3.30;;
12812;SDS011;6471;50.932;6.934;2023-08-08T08:48:13;4.20;;;2.90;;
12812;SDS011;6471;50.932;6.934;2023-08-08T08:50:41;5.23;;;3.20;;
12812;SDS011;6471;50.932;6.934;2023-08-08T08:53:08;5.93;;;3.40;;
12812;SDS011;6471;50.932;6.934;2023-08-08T08:55:35;8.30;;;3.63;;
12812;SDS011;6471;50.932;6.934;2023-08-08T08:58:01;5.30;;;3.00;;
12812;SDS011;6471;50.932;6.934;2023-08-08T09:00:29;3.83;;;3.07;;
12812;SDS011;6471;50.932;6.934;2023-08-08T09:02:56;5.93;;;3.63;;
12812;SDS011;6471;50.932;6.934;2023-08-08T09:05:22;5.30;;;3.10;;
12812;SDS011;6471;50.932;6.934;2023-08-08T09:07:49;4.60;;;2.93;;
12812;SDS011;6471;50.932;6.934;2023-08-08T09:10:16;5.37;;;2.43;;
12812;SDS011;6471;50.932;6.934;2023-08-08T09:12:43;4.60;;;2.73;;
12812;SDS011;6471;50.932;6.934;2023-08-08T09:15:09;7.30;;;3.43;;
12812;SDS011;6471;50.932;6.934;2023-08-08T09:17:40;5.83;;;3.00;;
12812;SDS011;6471;50.932;6.934;2023-08-08T09:20:06;5.60;;;2.80;;
12812;SDS011;6471;50.932;6.934;2023-08-08T09:22:33;5.23;;;3.00;;
12812;SDS011;6471;50.932;6.934;2023-08-08T09:24:59;4.23;;;2.87;;
12812;SDS011;6471;50.932;6.934;2023-08-08T09:27:28;3.03;;;2.60;;
12812;SDS011;6471;50.932;6.934;2023-08-08T09:29:54;3.97;;;2.70;;
12812;SDS011;6471;50.932;6.934;2023-08-08T09:32:20;4.93;;;2.80;;
12812;SDS011;6471;50.932;6.934;2023-08-08T09:34:46;3.87;;;2.60;;
12812;SDS011;6471;50.932;6.934;2023-08-08T09:37:12;5.97;;;2.73;;
12812;SDS011;6471;50.932;6.934;2023-08-08T09:39:39;3.67;;;2.80;;
12812;SDS011;6471;50.932;6.934;2023-08-08T09:42:07;4.43;;;2.63;;
12812;SDS011;6471;50.932;6.934;2023-08-08T09:44:33;4.67;;;2.50;;
12812;SDS011;6471;50.932;6.934;2023-08-08T09:47:00;3.93;;;2.40;;
12812;SDS011;6471;50.932;6.934;2023-08-08T09:49:26;5.47;;;2.70;;
12812;SDS011;6471;50.932;6.934;2023-08-08T09:51:52;3.70;;;2.80;;
12812;SDS011;6471;50.932;6.934;2023-08-08T09:54:19;5.37;;;2.60;;
12812;SDS011;6471;50.932;6.934;2023-08-08T09:56:47;5.47;;;2.73;;
12812;SDS011;6471;50.932;6.934;2023-08-08T09:59:13;3.77;;;2.80;;
12812;SDS011;6471;50.932;6.934;2023-08-08T10:01:40;3.60;;;2.40;;
12812;SDS011;6471;50.932;6.934;2023-08-08T10:04:07;5.60;;;2.57;;
12812;SDS011;6471;50.932;6.934;2023-08-08T10:06:33;5.23;;;2.60;;
12812;SDS011;6471;50.932;6.934;2023-08-08T10:09:00;5.17;;;2.47;;
12812;SDS011;6471;50.932;6.934;2023-08-08T10:11:28;4.20;;;2.53;;
12812;SDS011;6471;50.932;6.934;2023-08-08T10:13:56;4.87;;;2.90;;
12812;SDS011;6471;50.932;6.934;2023-08-08T10:16:23;5.70;;;2.10;;
12812;SDS011;6471;50.932;6.934;2023-08-08T10:18:55;3.87;;;2.40;;
12812;SDS011;6471;50.932;6.934;2023-08-08T10:21:23;5.70;;;2.60;;
12812;SDS011;6471;50.932;6.934;2023-08-08T10:23:49;3.70;;;2.50;;
12812;SDS011;6471;50.932;6.934;2023-08-08T10:26:17;4.53;;;2.17;;
12812;SDS011;6471;50.932;6.934;2023-08-08T10:28:55;5.40;;;2.63;;
12812;SDS011;6471;50.932;6.934;2023-08-08T10:31:21;3.50;;;2.33;;
12812;SDS011;6471;50.932;6.934;2023-08-08T10:33:48;2.43;;;2.10;;
12812;SDS011;6471;50.932;6.934;2023-08-08T10:36:14;5.07;;;2.40;;
12812;SDS011;6471;50.932;6.934;2023-08-08T10:38:47;4.33;;;2.47;;
12812;SDS011;6471;50.932;6.934;2023-08-08T10:41:16;4.97;;;2.33;;
12812;SDS011;6471;50.932;6.934;2023-08-08T10:43:47;4.27;;;2.17;;
12812;SDS011;6471;50.932;6.934;2023-08-08T10:46:22;5.30;;;2.00;;
12812;SDS011;6471;50.932;6.934;2023-08-08T10:48:52;2.90;;;2.20;;
12812;SDS011;6471;50.932;6.934;2023-08-08T10:51:19;3.07;;;2.10;;
12812;SDS011;6471;50.932;6.934;2023-08-08T10:53:45;3.90;;;1.90;;
12812;SDS011;6471;50.932;6.934;2023-08-08T10:56:14;4.03;;;1.90;;
12812;SDS011;6471;50.932;6.934;2023-08-08T10:58:41;3.43;;;2.00;;
12812;SDS011;6471;50.932;6.934;2023-08-08T11:01:07;3.80;;;1.97;;
12812;SDS011;6471;50.932;6.934;2023-08-08T11:03:37;2.50;;;1.90;;
12812;SDS011;6471;50.932;6.934;2023-08-08T11:06:05;2.77;;;1.90;;
12812;SDS011;6471;50.932;6.934;2023-08-08T11:08:32;4.30;;;1.97;;
12812;SDS011;6471;50.932;6.934;2023-08-08T11:10:58;3.83;;;1.87;;
12812;SDS011;6471;50.932;6.934;2023-08-08T11:13:25;3.33;;;2.10;;
12812;SDS011;6471;50.932;6.934;2023-08-08T11:15:51;3.53;;;2.10;;
12812;SDS011;6471;50.932;6.934;2023-08-08T11:18:17;3.63;;;2.20;;
12812;SDS011;6471;50.932;6.934;2023-08-08T11:20:44;4.53;;;2.13;;
12812;SDS011;6471;50.932;6.934;2023-08-08T11:23:10;2.70;;;1.80;;
12812;SDS011;6471;50.932;6.934;2023-08-08T11:25:40;4.43;;;1.80;;
12812;SDS011;6471;50.932;6.934;2023-08-08T11:28:07;2.23;;;1.73;;
12812;SDS011;6471;50.932;6.934;2023-08-08T11:30:34;6.20;;;2.00;;
12812;SDS011;6471;50.932;6.934;2023-08-08T11:33:00;4.87;;;2.10;;
12812;SDS011;6471;50.932;6.934;2023-08-08T11:35:26;5.33;;;1.93;;
12812;SDS011;6471;50.932;6.934;2023-08-08T11:37:53;2.73;;;1.83;;
12812;SDS011;6471;50.932;6.934;2023-08-08T11:40:20;3.50;;;1.77;;
12812;SDS011;6471;50.932;6.934;2023-08-08T11:42:46;4.20;;;1.77;;
12812;SDS011;6471;50.932;6.934;2023-08-08T11:45:15;6.40;;;1.90;;
12812;SDS011;6471;50.932;6.934;2023-08-08T11:47:41;4.00;;;1.80;;
12812;SDS011;6471;50.932;6.934;2023-08-08T11:50:08;3.07;;;1.87;;
12812;SDS011;6471;50.932;6.934;2023-08-08T11:52:36;5.10;;;2.00;;
12812;SDS011;6471;50.932;6.934;2023-08-08T11:55:06;3.87;;;1.90;;
12812;SDS011;6471;50.932;6.934;2023-08-08T11:57:36;3.50;;;1.93;;
12812;SDS011;6471;50.932;6.934;2023-08-08T12:00:06;2.70;;;1.90;;
12812;SDS011;6471;50.932;6.934;2023-08-08T12:02:33;3.37;;;1.90;;
12812;SDS011;6471;50.932;6.934;2023-08-08T12:05:08;3.67;;;1.80;;
12812;SDS011;6471;50.932;6.934;2023-08-08T12:07:36;4.27;;;1.90;;
12812;SDS011;6471;50.932;6.934;2023-08-08T12:10:03;5.70;;;1.93;;
12812;SDS011;6471;50.932;6.934;2023-08-08T12:12:30;3.73;;;2.23;;
12812;SDS011;6471;50.932;6.934;2023-08-08T12:14:58;5.30;;;1.93;;
12812;SDS011;6471;50.932;6.934;2023-08-08T12:17:25;6.07;;;2.17;;
12812;SDS011;6471;50.932;6.934;2023-08-08T12:19:51;6.17;;;2.17;;
12812;SDS011;6471;50.932;6.934;2023-08-08T12:22:17;4.60;;;1.80;;
12812;SDS011;6471;50.932;6.934;2023-08-08T12:24:43;2.67;;;1.80;;
12812;SDS011;6471;50.932;6.934;2023-08-08T12:27:09;2.73;;;1.67;;
12812;SDS011;6471;50.932;6.934;2023-08-08T12:29:35;2.77;;;1.60;;
12812;SDS011;6471;50.932;6.934;2023-08-08T12:32:02;3.87;;;1.60;;
12812;SDS011;6471;50.932;6.934;2023-08-08T12:34:32;2.10;;;1.50;;
12812;SDS011;6471;50.932;6.934;2023-08-08T12:36:58;2.83;;;1.60;;
12812;SDS011;6471;50.932;6.934;2023-08-08T12:39:24;4.30;;;1.70;;
12812;SDS011;6471;50.932;6.934;2023-08-08T12:41:51;3.70;;;1.87;;
12812;SDS011;6471;50.932;6.934;2023-08-08T12:44:17;5.70;;;2.00;;
12812;SDS011;6471;50.932;6.934;2023-08-08T12:46:43;2.93;;;1.83;;
12812;SDS011;6471;50.932;6.934;2023-08-08T12:49:09;4.80;;;1.80;;
12812;SDS011;6471;50.932;6.934;2023-08-08T12:51:35;4.17;;;2.00;;
12812;SDS011;6471;50.932;6.934;2023-08-08T12:54:01;4.97;;;1.83;;
12812;SDS011;6471;50.932;6.934;2023-08-08T12:56:27;3.57;;;1.60;;
12812;SDS011;6471;50.932;6.934;2023-08-08T12:58:53;2.50;;;1.83;;
12812;SDS011;6471;50.932;6.934;2023-08-08T13:01:20;4.20;;;1.70;;
12812;SDS011;6471;50.932;6.934;2023-08-08T13:03:53;2.77;;;1.80;;
12812;SDS011;6471;50.932;6.934;2023-08-08T13:06:19;6.80;;;1.80;;
12812;SDS011;6471;50.932;6.934;2023-08-08T13:08:45;4.03;;;2.10;;
12812;SDS011;6471;50.932;6.934;2023-08-08T13:11:11;4.43;;;1.90;;
12812;SDS011;6471;50.932;6.934;2023-08-08T13:13:37;5.73;;;2.37;;
12812;SDS011;6471;50.932;6.934;2023-08-08T13:16:03;3.77;;;2.10;;
12812;SDS011;6471;50.932;6.934;2023-08-08T13:18:29;5.60;;;2.30;;
12812;SDS011;6471;50.932;6.934;2023-08-08T13:20:55;4.80;;;2.20;;
12812;SDS011;6471;50.932;6.934;2023-08-08T13:23:22;4.07;;;1.73;;
12812;SDS011;6471;50.932;6.934;2023-08-08T13:25:51;3.20;;;1.90;;
12812;SDS011;6471;50.932;6.934;2023-08-08T13:28:17;2.60;;;1.83;;
12812;SDS011;6471;50.932;6.934;2023-08-08T13:30:43;3.27;;;1.77;;
12812;SDS011;6471;50.932;6.934;2023-08-08T13:33:09;2.30;;;1.67;;
12812;SDS011;6471;50.932;6.934;2023-08-08T13:35:35;6.27;;;1.70;;
12812;SDS011;6471;50.932;6.934;2023-08-08T13:38:01;2.23;;;1.73;;
12812;SDS011;6471;50.932;6.934;2023-08-08T13:40:27;3.17;;;1.77;;
12812;SDS011;6471;50.932;6.934;2023-08-08T13:42:53;3.00;;;1.77;;
12812;SDS011;6471;50.932;6.934;2023-08-08T13:45:20;3.63;;;1.90;;
12812;SDS011;6471;50.932;6.934;2023-08-08T13:47:47;2.87;;;1.60;;
12812;SDS011;6471;50.932;6.934;2023-08-08T13:50:13;4.77;;;1.80;;
12812;SDS011;6471;50.932;6.934;2023-08-08T13:52:40;5.70;;;1.97;;
12812;SDS011;6471;50.932;6.934;2023-08-08T13:55:06;5.77;;;2.20;;
12812;SDS011;6471;50.932;6.934;2023-08-08T13:57:33;5.90;;;1.90;;
12812;SDS011;6471;50.932;6.934;2023-08-08T13:59:59;4.70;;;1.60;;
12812;SDS011;6471;50.932;6.934;2023-08-08T14:02:25;2.83;;;1.67;;
12812;SDS011;6471;50.932;6.934;2023-08-08T14:04:51;3.53;;;1.70;;
12812;SDS011;6471;50.932;6.934;2023-08-08T14:07:18;4.20;;;1.97;;
12812;SDS011;6471;50.932;6.934;2023-08-08T14:09:46;5.03;;;2.13;;
12812;SDS011;6471;50.932;6.934;2023-08-08T14:12:12;3.83;;;2.00;;
12812;SDS011;6471;50.932;6.934;2023-08-08T14:14:38;3.17;;;1.90;;
12812;SDS011;6471;50.932;6.934;2023-08-08T14:17:04;3.93;;;1.93;;
12812;SDS011;6471;50.932;6.934;2023-08-08T14:19:30;3.77;;;1.93;;
12812;SDS011;6471;50.932;6.934;2023-08-08T14:21:56;3.10;;;1.83;;
12812;SDS011;6471;50.932;6.934;2023-08-08T14:24:22;3.93;;;1.80;;
12812;SDS011;6471;50.932;6.934;2023-08-08T14:26:48;3.00;;;1.53;;
12812;SDS011;6471;50.932;6.934;2023-08-08T14:29:14;2.97;;;1.50;;
12812;SDS011;6471;50.932;6.934;2023-08-08T14:31:40;5.83;;;2.23;;
12812;SDS011;6471;50.932;6.934;2023-08-08T14:34:06;3.43;;;1.77;;
12812;SDS011;6471;50.932;6.934;2023-08-08T14:36:32;5.53;;;1.80;;
12812;SDS011;6471;50.932;6.934;2023-08-08T14:38:59;5.20;;;2.00;;
12812;SDS011;6471;50.932;6.934;2023-08-08T14:41:25;5.67;;;1.90;;
12812;SDS011;6471;50.932;6.934;2023-08-08T14:43:51;2.60;;;1.53;;
12812;SDS011;6471;50.932;6.934;2023-08-08T14:46:17;3.57;;;1.70;;
12812;SDS011;6471;50.932;6.934;2023-08-08T14:48:43;2.97;;;1.70;;
12812;SDS011;6471;50.932;6.934;2023-08-08T14:51:09;2.77;;;1.53;;
12812;SDS011;6471;50.932;6.934;2023-08-08T14:53:36;4.00;;;1.70;;
12812;SDS011;6471;50.932;6.934;2023-08-08T14:56:02;4.73;;;1.60;;
12812;SDS011;6471;50.932;6.934;2023-08-08T14:58:28;3.43;;;2.00;;
12812;SDS011;6471;50.932;6.934;2023-08-08T15:00:54;3.50;;;1.77;;